»·PEaware :: N149CD KSNA-KOXR

N149CD :: KSNA-KOXR

FLIGHT INFORMATION

Flight Status: Arrived
Operator: Privately registered:
United States
More flights under this callsign
Pilot: Nathan E. (30132)
Aircraft: CIRRUS SR-22
(SR22)
More flights by this aircraft type
Origin: KSNA John Wayne-Orange Co
United States
Destination: KOXR Oxnard
United States
More flights between these airports :: More routes between these airports
Route: SLI V23 POPPR SMO125 SMO VNY
File this flight plan on PilotEdge
Remarks: TEC route CTSP24
Altitude:
(Current/Filed)
4,000ft
Speed:
(Current/Filed)
170kts
Departed: 05-Jan-21 02:48 PM
Arrived: 05-Jan-21 03:27 PM
Distance/Time
Traveled:
73nm/0:39
Distance/Time
To Go:
Arrived

Flight Plot

Page will automatically refresh every two minutes.


Map Options




Map Legend


Flown Route
Filed Route
Departure Airport
Arrival Airport
Navaid (VOR, NDB)
Fix

Horizontal Profiles

Position Reports

Time Latitude Longitude Heading Altitude Ground
Speed
05-Jan-21 14:17 33.673758 -117.872433 297 59ft 0kts
05-Jan-21 14:18 33.673758 -117.872433 297 59ft 0kts
05-Jan-21 14:19 33.673758 -117.872433 297 59ft 0kts
05-Jan-21 14:20 33.673758 -117.872433 297 59ft 0kts
05-Jan-21 14:21 33.673758 -117.872433 297 59ft 0kts
05-Jan-21 14:22 33.673758 -117.872433 297 59ft 0kts
05-Jan-21 14:23 33.673758 -117.872433 297 59ft 0kts
05-Jan-21 14:24 33.673758 -117.872433 297 59ft 0kts
05-Jan-21 14:25 33.673758 -117.872433 297 59ft 0kts
05-Jan-21 14:26 33.673758 -117.872433 297 59ft 0kts
05-Jan-21 14:27 33.673758 -117.872433 297 59ft 0kts
05-Jan-21 14:28 33.673758 -117.872433 297 59ft 0kts
05-Jan-21 14:29 33.673758 -117.872433 297 59ft 0kts
05-Jan-21 14:29 33.673758 -117.872433 297 59ft 0kts
05-Jan-21 14:31 33.673758 -117.872433 297 59ft 0kts
05-Jan-21 14:32 33.673758 -117.872433 297 59ft 0kts
05-Jan-21 14:33 33.673758 -117.872433 297 59ft 0kts
05-Jan-21 14:33 33.673758 -117.872433 297 59ft 0kts
05-Jan-21 14:34 33.673758 -117.872433 297 59ft 0kts
05-Jan-21 14:36 33.673758 -117.872433 297 59ft 0kts
05-Jan-21 14:36 33.673758 -117.872433 297 59ft 0kts
05-Jan-21 14:37 33.673770 -117.872458 316 59ft 0kts
05-Jan-21 14:38 33.674497 -117.871078 27 59ft 13kts
05-Jan-21 14:39 33.676757 -117.869209 208 59ft 0kts
05-Jan-21 14:40 33.676757 -117.869209 208 59ft 0kts
05-Jan-21 14:41 33.676757 -117.869209 208 59ft 0kts
05-Jan-21 14:42 33.676757 -117.869209 208 59ft 0kts
05-Jan-21 14:43 33.676701 -117.869301 267 59ft 6kts
05-Jan-21 14:44 33.679963 -117.867799 26 59ft 9kts
05-Jan-21 14:45 33.681218 -117.866462 118 59ft 0kts
05-Jan-21 14:46 33.681088 -117.866165 118 59ft 8kts
05-Jan-21 14:47 33.665427 -117.875581 209 310ft 127kts
05-Jan-21 14:48 33.642897 -117.902902 241 1869ft 114kts
05-Jan-21 14:49 33.630197 -117.937758 273 3226ft 119kts
05-Jan-21 14:50 33.652018 -117.971793 303 4019ft 152kts
05-Jan-21 14:51 33.678352 -118.013865 302 3993ft 155kts
05-Jan-21 14:52 33.703938 -118.056235 301 3991ft 155kts
05-Jan-21 14:53 33.729397 -118.098683 301 3991ft 155kts
05-Jan-21 14:54 33.754896 -118.141282 301 3993ft 154kts
05-Jan-21 14:55 33.780006 -118.183317 302 3994ft 152kts
05-Jan-21 14:56 33.805336 -118.225745 302 3992ft 151kts
05-Jan-21 14:57 33.830561 -118.268032 303 3989ft 149kts
05-Jan-21 14:58 33.859252 -118.304903 316 3993ft 149kts
05-Jan-21 14:59 33.891797 -118.337599 316 3997ft 149kts
05-Jan-21 15:00 33.924223 -118.370169 316 3998ft 150kts
05-Jan-21 15:01 33.956656 -118.402764 316 3995ft 152kts
05-Jan-21 15:02 33.990063 -118.436397 316 3993ft 154kts
05-Jan-21 15:03 34.027846 -118.459538 348 3994ft 159kts
05-Jan-21 15:04 34.069762 -118.472627 296 3997ft 153kts
05-Jan-21 15:05 34.062670 -118.520755 258 3994ft 149kts
05-Jan-21 15:06 34.056688 -118.569848 263 4052ft 145kts
05-Jan-21 15:07 34.051927 -118.620475 263 4258ft 158kts
05-Jan-21 15:08 34.047388 -118.670968 263 4243ft 134kts
05-Jan-21 15:09 34.043770 -118.711363 263 4243ft 108kts
05-Jan-21 15:10 34.040385 -118.748988 263 4256ft 114kts
05-Jan-21 15:11 34.056971 -118.776825 323 4261ft 116kts
05-Jan-21 15:12 34.086039 -118.797516 325 4244ft 115kts
05-Jan-21 15:13 34.112177 -118.815841 324 4266ft 108kts
05-Jan-21 15:14 34.141816 -118.836608 325 4212ft 126kts
05-Jan-21 15:15 34.170672 -118.856776 324 4188ft 115kts
05-Jan-21 15:16 34.196396 -118.878160 280 4190ft 101kts
05-Jan-21 15:17 34.198114 -118.913985 269 4062ft 111kts
05-Jan-21 15:18 34.199329 -118.952147 263 3754ft 114kts
05-Jan-21 15:19 34.198959 -118.990986 269 3366ft 117kts
05-Jan-21 15:20 34.199315 -119.030219 269 2798ft 113kts
05-Jan-21 15:21 34.199662 -119.068930 269 2192ft 113kts
05-Jan-21 15:22 34.199985 -119.105868 269 1585ft 107kts
05-Jan-21 15:23 34.200288 -119.141974 269 1069ft 99kts
05-Jan-21 15:24 34.200542 -119.173339 268 524ft 85kts
05-Jan-21 15:25 34.200743 -119.200603 270 44ft 68kts
05-Jan-21 15:26 34.200189 -119.207170 139 36ft 0kts
05-Jan-21 15:27 34.199787 -119.205286 91 38ft 14kts
05-Jan-21 15:28 34.199557 -119.199898 176 42ft 6kts
05-Jan-21 15:29 34.199157 -119.199678 90 42ft 0kts

Navigation Log

Ident Type
Flight plan parsing failed, navigation log unavailable